Time;durP1;ratioP1;P1;durP2;ratioP2;P2;SDS_P1;SDS_P2;PMS_P1;PMS_P2;Temp;Humidity;BMP_temperature;BMP_pressure;BME280_temperature;BME280_humidity;BME280_pressure;Samples;Min_cycle;Max_cycle;Signal;HPM_P1;HPM_P2
2021/06/24 00:01:05;;;;;;;37.48;8.70;;;;;;;22.10;88.93;99550.96;1598959;88;21115;-70
2021/06/24 00:03:33;;;;;;;43.83;8.85;;;;;;;22.10;89.07;99543.17;1605113;87;20911;-69
2021/06/24 00:06:00;;;;;;;31.27;8.33;;;;;;;22.08;89.06;99542.97;1603992;88;20976;-69
2021/06/24 00:08:27;;;;;;;40.00;8.28;;;;;;;22.06;89.17;99541.16;1608530;88;21058;-69
2021/06/24 00:10:55;;;;;;;42.60;8.43;;;;;;;22.04;89.00;99537.16;1621094;88;20919;-69
2021/06/24 00:13:22;;;;;;;27.98;8.05;;;;;;;21.99;88.98;99542.49;1597332;88;21175;-69
2021/06/24 00:15:49;;;;;;;35.33;8.80;;;;;;;21.94;89.17;99544.30;1598865;89;21027;-69
2021/06/24 00:18:15;;;;;;;35.78;8.05;;;;;;;21.88;89.19;99534.69;1589880;89;21482;-69
2021/06/24 00:20:44;;;;;;;33.15;8.03;;;;;;;21.85;89.37;99545.84;1584392;89;21015;-69
2021/06/24 00:23:11;;;;;;;36.03;8.75;;;;;;;21.80;89.47;99544.82;1583216;90;20995;-69
2021/06/24 00:25:37;;;;;;;26.48;7.30;;;;;;;21.75;89.52;99537.61;1601297;89;21201;-69
2021/06/24 00:28:04;;;;;;;32.98;8.15;;;;;;;21.70;90.11;99532.39;1583399;89;20899;-69
2021/06/24 00:30:31;;;;;;;32.17;7.70;;;;;;;21.67;90.58;99528.98;1602180;89;21011;-69
2021/06/24 00:32:58;;;;;;;34.30;7.78;;;;;;;21.66;91.00;99531.56;1592505;88;21034;-69
2021/06/24 00:35:24;;;;;;;41.48;9.10;;;;;;;21.64;91.18;99536.15;1593230;89;21602;-69
2021/06/24 00:37:51;;;;;;;37.20;8.40;;;;;;;21.61;91.37;99530.54;1595327;89;21958;-69
2021/06/24 00:40:17;;;;;;;42.00;8.25;;;;;;;21.57;91.28;99533.31;1600109;87;21013;-69
2021/06/24 00:42:44;;;;;;;42.33;8.70;;;;;;;21.52;91.21;99533.68;1597442;89;20999;-70
2021/06/24 00:45:12;;;;;;;41.05;8.68;;;;;;;21.49;91.26;99537.25;1595641;89;21053;-70
2021/06/24 00:47:40;;;;;;;27.85;7.75;;;;;;;21.45;91.24;99537.82;1595810;88;21073;-70
2021/06/24 00:50:08;;;;;;;46.48;9.28;;;;;;;21.40;91.23;99529.21;1600283;89;21601;-70
2021/06/24 00:52:35;;;;;;;26.97;7.33;;;;;;;21.36;91.44;99532.61;1594984;89;20971;-70
2021/06/24 00:55:02;;;;;;;36.88;8.28;;;;;;;21.32;91.67;99530.38;1598988;88;21030;-70
2021/06/24 00:57:29;;;;;;;38.67;9.00;;;;;;;21.29;91.89;99529.77;1617678;87;21079;-70
2021/06/24 00:59:56;;;;;;;43.85;9.48;;;;;;;21.26;91.97;99519.37;1585194;88;21453;-70
2021/06/24 01:02:23;;;;;;;30.05;7.90;;;;;;;21.24;92.06;99520.95;1593687;89;21162;-70
2021/06/24 01:04:49;;;;;;;45.43;9.35;;;;;;;21.22;92.19;99519.13;1582962;89;21060;-69
2021/06/24 01:07:17;;;;;;;31.75;8.83;;;;;;;21.20;92.19;99518.09;1584688;89;21007;-71
2021/06/24 01:09:45;;;;;;;30.82;8.45;;;;;;;21.19;92.14;99516.49;1591139;87;20996;-69
2021/06/24 01:12:12;;;;;;;30.08;8.68;;;;;;;21.19;92.39;99512.91;1586909;89;20923;-71
2021/06/24 01:14:39;;;;;;;36.93;7.95;;;;;;;21.19;92.70;99511.50;1598969;89;22165;-71
2021/06/24 01:17:05;;;;;;;57.78;9.98;;;;;;;21.18;92.83;99511.30;1609774;87;20959;-71
2021/06/24 01:19:34;;;;;;;45.98;7.90;;;;;;;21.18;92.97;99512.69;1617014;88;20959;-71
2021/06/24 01:22:00;;;;;;;50.28;9.38;;;;;;;21.18;93.12;99509.31;1596062;88;20999;-71
2021/06/24 01:24:28;;;;;;;42.13;8.75;;;;;;;21.19;93.13;99521.28;1611482;87;21581;-69
2021/06/24 01:26:55;;;;;;;52.13;9.83;;;;;;;21.18;93.10;99521.07;1603363;88;21186;-72
2021/06/24 01:29:23;;;;;;;66.47;10.05;;;;;;;21.19;92.88;99528.25;1613870;87;21065;-71
2021/06/24 01:31:49;;;;;;;60.33;8.93;;;;;;;21.16;92.71;99524.84;1602353;87;21011;-72
2021/06/24 01:34:16;;;;;;;51.98;10.13;;;;;;;21.15;92.69;99526.83;1603010;88;21104;-70
2021/06/24 01:36:43;;;;;;;58.05;10.58;;;;;;;21.15;92.57;99528.23;1604980;88;20949;-69
2021/06/24 01:39:12;;;;;;;45.70;9.08;;;;;;;21.16;92.31;99525.64;1601377;87;21144;-69
2021/06/24 01:41:39;;;;;;;41.15;8.48;;;;;;;21.14;92.09;99530.81;1610956;88;21040;-69
2021/06/24 01:44:08;;;;;;;44.95;9.48;;;;;;;21.09;92.10;99534.77;1604604;88;20978;-68
2021/06/24 01:46:34;;;;;;;49.85;8.10;;;;;;;21.03;92.16;99531.31;1598892;88;20941;-69
2021/06/24 01:49:01;;;;;;;40.25;8.78;;;;;;;20.99;92.64;99526.30;1593779;89;21506;-70
2021/06/24 01:51:28;;;;;;;45.48;10.00;;;;;;;20.95;92.75;99524.88;1616381;88;21780;-69
2021/06/24 01:53:55;;;;;;;49.93;10.78;;;;;;;20.93;92.95;99529.23;1615549;88;20953;-70
2021/06/24 01:56:22;;;;;;;45.80;9.73;;;;;;;20.91;93.02;99527.42;1601056;88;21562;-69
2021/06/24 01:58:50;;;;;;;43.00;10.00;;;;;;;20.87;93.23;99527.98;1584281;89;21033;-69
2021/06/24 02:01:31;;;;;;;42.03;10.20;;;;;;;20.85;93.26;99526.17;1583091;89;20956;-69
2021/06/24 02:04:07;;;;;;;58.98;11.35;;;;;;;20.82;93.62;99523.56;1595696;89;21091;-70
2021/06/24 02:06:33;;;;;;;38.88;10.03;;;;;;;20.80;94.02;99524.53;1601748;89;21447;-70
2021/06/24 02:09:02;;;;;;;47.13;12.58;;;;;;;20.78;94.45;99522.75;1600273;89;20940;-70
2021/06/24 02:11:43;;;;;;;48.58;11.12;;;;;;;20.76;94.78;99524.53;1594517;89;20940;-69
2021/06/24 02:14:10;;;;;;;44.13;11.68;;;;;;;20.77;95.04;99525.34;1598675;89;21035;-70
2021/06/24 02:16:37;;;;;;;42.85;12.07;;;;;;;20.75;95.13;99538.27;1595474;89;21134;-69
2021/06/24 02:19:04;;;;;;;45.92;11.70;;;;;;;20.74;95.04;99540.85;1598421;89;20960;-69
2021/06/24 02:21:42;;;;;;;42.98;12.30;;;;;;;20.72;95.17;99543.81;1581086;88;20987;-69
2021/06/24 02:24:09;;;;;;;49.42;13.03;;;;;;;20.70;95.35;99540.61;1603598;88;20971;-69
2021/06/24 02:26:38;;;;;;;39.45;11.65;;;;;;;20.70;95.84;99543.40;1607528;88;21005;-69
2021/06/24 02:29:07;;;;;;;46.48;11.30;;;;;;;20.70;96.20;99543.40;1582292;89;21239;-69
2021/06/24 02:31:33;;;;;;;42.88;11.78;;;;;;;20.70;96.56;99546.98;1611959;87;20919;-69
2021/06/24 02:34:02;;;;;;;49.90;12.80;;;;;;;20.69;96.77;99539.80;1611333;87;20916;-69
2021/06/24 02:36:30;;;;;;;43.75;11.28;;;;;;;20.70;97.01;99550.38;1587337;89;21121;-69
2021/06/24 02:38:57;;;;;;;40.38;11.50;;;;;;;20.71;97.22;99553.38;1587549;88;21177;-69
2021/06/24 02:41:23;;;;;;;49.45;11.48;;;;;;;20.75;97.46;99556.41;1619921;88;21111;-70
2021/06/24 02:43:50;;;;;;;42.88;10.55;;;;;;;20.79;97.61;99557.03;1631333;87;21451;-69
2021/06/24 02:46:17;;;;;;;53.65;10.98;;;;;;;20.84;97.93;99555.26;1625917;87;21039;-70
2021/06/24 02:48:45;;;;;;;58.40;12.03;;;;;;;20.90;97.80;99561.50;1631847;87;20923;-69
2021/06/24 02:51:13;;;;;;;41.73;10.15;;;;;;;20.96;97.73;99554.38;1621736;87;21587;-69
2021/06/24 02:53:44;;;;;;;56.05;11.65;;;;;;;21.07;97.57;99560.05;1594391;87;21150;-69
2021/06/24 02:56:11;;;;;;;56.33;11.53;;;;;;;21.18;97.19;99561.55;1601752;87;20884;-70
2021/06/24 02:58:40;;;;;;;48.63;10.15;;;;;;;21.31;96.70;99564.27;1626261;86;21525;-70
2021/06/24 03:01:18;;;;;;;70.85;10.70;;;;;;;21.43;96.00;99561.14;1583831;87;21042;-70
2021/06/24 03:04:05;;;;;;;57.55;10.82;;;;;;;21.58;95.30;99566.23;1620698;87;21456;-70
2021/06/24 03:06:37;;;;;;;78.33;11.80;;;;;;;21.73;94.83;99566.53;1624055;88;21157;-70
2021/06/24 03:09:04;;;;;;;53.65;11.70;;;;;;;21.83;94.06;99559.41;1628514;87;20985;-70
2021/06/24 03:11:33;;;;;;;60.92;10.78;;;;;;;21.92;93.31;99564.84;1617215;87;21031;-70
2021/06/24 03:14:01;;;;;;;72.67;11.90;;;;;;;22.02;92.34;99561.91;1628664;87;20991;-71
2021/06/24 03:16:29;;;;;;;89.00;12.25;;;;;;;22.10;91.74;99557.95;1621902;87;20996;-69
2021/06/24 03:18:56;;;;;;;57.93;12.00;;;;;;;22.20;90.83;99559.19;1610714;87;21137;-70
2021/06/24 03:21:24;;;;;;;66.25;12.13;;;;;;;22.28;89.99;99561.63;1615787;87;20932;-69
2021/06/24 03:23:51;;;;;;;62.38;11.73;;;;;;;22.39;89.24;99556.06;1614322;87;21023;-69
2021/06/24 03:26:18;;;;;;;58.65;12.13;;;;;;;22.47;88.59;99560.48;1581968;88;21016;-70
2021/06/24 03:28:45;;;;;;;77.05;12.47;;;;;;;22.56;88.31;99559.48;1619811;87;20952;-71
2021/06/24 03:31:14;;;;;;;75.08;12.82;;;;;;;22.64;87.23;99561.70;1637384;85;21132;-70
2021/06/24 03:33:41;;;;;;;68.78;12.07;;;;;;;22.71;86.76;99563.11;1619836;87;21073;-70
2021/06/24 03:36:08;;;;;;;67.08;11.08;;;;;;;22.78;86.23;99563.12;1629390;86;21029;-71
2021/06/24 03:38:37;;;;;;;63.38;11.33;;;;;;;22.84;86.05;99557.38;1629311;86;21592;-70
2021/06/24 03:41:04;;;;;;;62.73;11.65;;;;;;;22.89;85.46;99555.58;1631540;86;21422;-69
2021/06/24 03:43:32;;;;;;;59.63;11.30;;;;;;;22.97;84.97;99558.59;1635884;86;21103;-69
2021/06/24 03:45:59;;;;;;;68.22;11.28;;;;;;;23.05;84.34;99555.19;1647453;86;21080;-69
2021/06/24 03:48:27;;;;;;;68.10;11.85;;;;;;;23.10;83.72;99554.80;1643301;86;20989;-69
2021/06/24 03:50:57;;;;;;;67.00;11.95;;;;;;;23.17;83.44;99558.97;1637703;85;21027;-70
2021/06/24 03:53:24;;;;;;;63.92;11.22;;;;;;;23.25;82.89;99559.17;1630544;86;21013;-70
2021/06/24 03:55:51;;;;;;;58.25;11.78;;;;;;;23.36;81.76;99554.96;1631422;86;21081;-71
2021/06/24 03:58:19;;;;;;;75.32;11.68;;;;;;;23.43;81.19;99554.95;1630371;86;20926;-70
2021/06/24 04:00:47;;;;;;;76.80;12.80;;;;;;;23.47;81.55;99548.75;1670706;85;20943;-70
2021/06/24 04:03:15;;;;;;;73.22;11.60;;;;;;;23.52;80.59;99552.55;1645619;86;20969;-70
2021/06/24 04:05:46;;;;;;;78.22;11.85;;;;;;;23.60;80.31;99548.56;1625781;87;21546;-70
2021/06/24 04:08:13;;;;;;;88.42;12.07;;;;;;;23.67;79.51;99550.55;1610671;87;21060;-70
2021/06/24 04:10:41;;;;;;;89.07;12.75;;;;;;;23.70;79.48;99549.11;1601915;89;20967;-71
2021/06/24 04:13:08;;;;;;;70.37;10.88;;;;;;;23.70;79.00;99551.91;1597261;89;21039;-70
2021/06/24 04:15:35;;;;;;;63.38;12.03;;;;;;;23.70;78.62;99546.30;1604019;89;20984;-71
2021/06/24 04:18:04;;;;;;;58.10;10.85;;;;;;;23.67;78.35;99547.14;1604104;89;21008;-70
2021/06/24 04:20:31;;;;;;;65.75;10.82;;;;;;;23.65;78.26;99548.15;1604077;89;21154;-70
2021/06/24 04:22:58;;;;;;;66.17;11.40;;;;;;;23.65;78.43;99550.15;1597468;88;21041;-71
2021/06/24 04:25:30;;;;;;;82.35;13.05;;;;;;;23.66;78.47;99548.34;1611036;87;21014;-71
2021/06/24 04:28:00;;;;;;;73.80;13.45;;;;;;;23.68;78.23;99548.71;1615649;86;21524;-71
2021/06/24 04:30:27;;;;;;;68.60;10.93;;;;;;;23.71;77.64;99546.50;1607779;86;21042;-71
2021/06/24 04:32:56;;;;;;;71.30;12.18;;;;;;;23.74;77.78;99558.11;1619240;86;21925;-71
2021/06/24 04:35:24;;;;;;;67.75;13.78;;;;;;;23.74;78.10;99551.11;1621328;87;21041;-70
2021/06/24 04:37:52;;;;;;;83.97;13.55;;;;;;;23.77;78.14;99554.50;1610777;86;21608;-70
2021/06/24 04:40:19;;;;;;;66.60;13.05;;;;;;;23.82;77.94;99551.28;1642248;84;21121;-70
2021/06/24 04:42:47;;;;;;;66.00;11.40;;;;;;;23.92;78.00;99558.27;1677944;84;21144;-70
2021/06/24 04:45:16;;;;;;;62.58;11.57;;;;;;;24.01;78.60;99550.83;1637371;84;21149;-72
2021/06/24 04:47:51;;;;;;;63.10;11.45;;;;;;;24.09;78.11;99557.20;1663260;84;21461;-70
2021/06/24 04:50:18;;;;;;;60.85;11.43;;;;;;;24.15;78.06;99566.20;1655722;85;21057;-69
2021/06/24 04:52:46;;;;;;;65.12;12.37;;;;;;;24.22;77.36;99556.35;1656138;85;21484;-68
2021/06/24 04:55:14;;;;;;;68.07;11.55;;;;;;;24.31;76.95;99555.31;1662644;84;21538;-70
2021/06/24 04:57:42;;;;;;;69.25;12.40;;;;;;;24.40;76.97;99556.27;1674786;84;21080;-68
2021/06/24 05:00:27;;;;;;;64.45;12.65;;;;;;;24.50;76.76;99563.84;1668167;84;20981;-68
2021/06/24 05:03:12;;;;;;;73.67;12.33;;;;;;;24.60;75.83;99555.16;1653694;84;20938;-67
2021/06/24 05:05:48;;;;;;;73.90;13.68;;;;;;;24.68;75.87;99556.11;1667192;84;21025;-67
2021/06/24 05:08:20;;;;;;;54.58;10.88;;;;;;;24.74;75.14;99550.87;1662660;84;20920;-69
2021/06/24 05:10:46;;;;;;;70.45;12.85;;;;;;;24.78;74.32;99554.45;1647486;84;21161;-69
2021/06/24 05:13:13;;;;;;;61.30;12.60;;;;;;;24.82;74.37;99553.83;1631590;87;20895;-68
2021/06/24 05:15:42;;;;;;;60.08;12.13;;;;;;;24.90;74.24;99552.53;1650867;85;21009;-69
2021/06/24 05:18:12;;;;;;;55.55;10.88;;;;;;;24.97;73.70;99553.91;1665673;84;21470;-69
2021/06/24 05:20:39;;;;;;;72.47;12.60;;;;;;;25.09;73.49;99552.63;1638298;85;21144;-69
2021/06/24 05:23:07;;;;;;;51.65;10.38;;;;;;;25.23;71.75;99552.51;1626555;86;21592;-66
2021/06/24 05:25:33;;;;;;;53.83;10.50;;;;;;;25.36;71.36;99561.23;1646800;86;20956;-67
2021/06/24 05:28:00;;;;;;;46.92;9.90;;;;;;;25.49;70.93;99562.89;1653960;85;20959;-69
2021/06/24 05:30:26;;;;;;;61.23;10.45;;;;;;;25.66;70.21;99568.37;1594683;86;20936;-68
2021/06/24 05:32:53;;;;;;;66.82;11.08;;;;;;;25.83;69.64;99568.60;1677026;84;20962;-68
2021/06/24 05:35:19;;;;;;;71.47;11.48;;;;;;;25.99;69.62;99567.42;1673974;84;21130;-69
2021/06/24 05:37:45;;;;;;;58.85;10.13;;;;;;;26.12;69.45;99569.05;1667481;84;21047;-69
2021/06/24 05:40:13;;;;;;;66.15;10.03;;;;;;;26.21;68.30;99565.92;1670499;84;21711;-68
2021/06/24 05:42:40;;;;;;;60.67;10.88;;;;;;;26.29;67.35;99566.02;1659815;86;21016;-68
2021/06/24 05:45:09;;;;;;;49.23;10.25;;;;;;;26.37;67.27;99568.78;1665565;86;21587;-67
2021/06/24 05:47:36;;;;;;;62.43;10.70;;;;;;;26.45;66.54;99571.69;1640128;86;21235;-67
2021/06/24 05:50:04;;;;;;;49.53;9.95;;;;;;;26.51;65.91;99569.39;1639237;86;21012;-67
2021/06/24 05:52:31;;;;;;;63.63;10.43;;;;;;;26.52;66.37;99569.58;1635048;86;21009;-68
2021/06/24 05:54:57;;;;;;;59.48;10.10;;;;;;;26.57;66.98;99566.90;1635843;86;20973;-68
2021/06/24 05:57:26;;;;;;;61.83;9.20;;;;;;;26.67;66.44;99566.53;1627355;86;21040;-68
2021/06/24 05:59:58;;;;;;;50.95;9.40;;;;;;;26.76;65.31;99563.38;1622789;86;20947;-67
2021/06/24 06:02:25;;;;;;;49.47;9.40;;;;;;;26.90;64.31;99563.78;1642180;86;21595;-68
2021/06/24 06:04:51;;;;;;;51.15;9.50;;;;;;;27.03;64.08;99563.41;1653208;85;21037;-68
2021/06/24 06:07:17;;;;;;;59.55;10.32;;;;;;;27.12;63.53;99558.02;1659086;86;21003;-70
2021/06/24 06:09:44;;;;;;;51.83;9.98;;;;;;;27.21;62.85;99557.45;1662553;84;20953;-68
2021/06/24 06:12:10;;;;;;;45.92;9.70;;;;;;;27.24;61.94;99552.37;1670546;84;21116;-68
2021/06/24 06:14:37;;;;;;;60.17;10.75;;;;;;;27.26;62.38;99556.97;1689283;84;21059;-68
2021/06/24 06:17:05;;;;;;;54.08;9.60;;;;;;;27.33;62.23;99558.25;1678902;84;21225;-68
2021/06/24 06:19:32;;;;;;;54.35;10.20;;;;;;;27.52;62.27;99563.77;1655203;84;21017;-68
2021/06/24 06:21:59;;;;;;;65.05;10.35;;;;;;;27.73;61.64;99561.97;1651839;84;21077;-68
2021/06/24 06:24:26;;;;;;;61.37;10.65;;;;;;;27.93;60.70;99561.38;1632868;86;21131;-68
2021/06/24 06:26:55;;;;;;;33.23;7.70;;;;;;;28.16;60.67;99559.11;1627847;86;21026;-70
2021/06/24 06:29:21;;;;;;;57.25;8.78;;;;;;;28.39;58.57;99561.67;1656169;84;21026;-69
2021/06/24 06:31:48;;;;;;;46.98;9.15;;;;;;;28.54;56.93;99555.89;1649321;84;21705;-67
2021/06/24 06:34:14;;;;;;;47.23;9.68;;;;;;;28.60;57.34;99555.55;1636743;86;21630;-65
2021/06/24 06:36:41;;;;;;;39.10;7.90;;;;;;;28.66;57.37;99555.84;1650870;86;21165;-71
2021/06/24 06:39:07;;;;;;;46.70;8.78;;;;;;;28.74;57.63;99556.64;1661140;85;21070;-76
2021/06/24 06:41:34;;;;;;;40.98;8.03;;;;;;;28.86;56.25;99555.20;1645664;86;20928;-69
2021/06/24 06:44:01;;;;;;;48.10;7.70;;;;;;;28.92;56.29;99558.44;1636830;86;20991;-73
2021/06/24 06:46:28;;;;;;;42.10;7.80;;;;;;;28.99;54.75;99555.27;1638936;86;21103;-67
2021/06/24 06:48:56;;;;;;;40.98;7.60;;;;;;;29.03;52.71;99554.56;1646096;86;21148;-67
2021/06/24 06:51:23;;;;;;;45.08;8.58;;;;;;;29.04;52.34;99553.33;1654036;86;20942;-66
2021/06/24 06:53:50;;;;;;;39.18;6.17;;;;;;;29.07;52.80;99553.86;1657170;86;20924;-70
2021/06/24 06:56:17;;;;;;;38.90;7.05;;;;;;;29.12;52.48;99555.54;1653986;86;20972;-69
2021/06/24 06:58:44;;;;;;;27.35;6.22;;;;;;;29.21;52.61;99554.92;1636846;86;21116;-68
2021/06/24 07:01:11;;;;;;;37.67;6.97;;;;;;;29.28;51.36;99559.61;1668998;84;21498;-72
2021/06/24 07:03:37;;;;;;;42.67;7.97;;;;;;;29.27;51.18;99562.26;1632792;86;21204;-72
2021/06/24 07:06:05;;;;;;;40.03;8.65;;;;;;;29.24;51.84;99566.77;1642537;86;21110;-72
2021/06/24 07:08:31;;;;;;;48.90;9.20;;;;;;;29.29;52.16;99567.64;1642651;86;21118;-73
2021/06/24 07:10:59;;;;;;;29.70;7.50;;;;;;;29.32;51.04;99558.28;1656464;85;21574;-70
2021/06/24 07:13:26;;;;;;;36.08;6.17;;;;;;;29.37;50.63;99561.98;1648491;86;21946;-72
2021/06/24 07:15:56;;;;;;;27.93;6.55;;;;;;;29.43;51.90;99561.66;1631019;85;20888;-71
2021/06/24 07:18:24;;;;;;;35.75;6.92;;;;;;;29.45;52.09;99559.19;1655205;85;20976;-70
2021/06/24 07:20:51;;;;;;;24.72;6.17;;;;;;;29.52;50.64;99564.63;1657196;85;21047;-71
2021/06/24 07:23:18;;;;;;;34.83;7.47;;;;;;;29.52;48.54;99558.17;1668662;85;21007;-71
2021/06/24 07:25:44;;;;;;;28.30;6.67;;;;;;;29.51;48.23;99563.03;1663610;85;21533;-71
2021/06/24 07:28:11;;;;;;;29.80;6.75;;;;;;;29.64;48.31;99558.06;1654382;86;20944;-71
2021/06/24 07:30:38;;;;;;;41.68;7.40;;;;;;;29.83;49.55;99560.77;1634638;85;21179;-71
2021/06/24 07:33:05;;;;;;;36.42;6.55;;;;;;;29.97;48.42;99562.41;1653349;85;21609;-71
2021/06/24 07:35:32;;;;;;;46.73;8.23;;;;;;;30.03;47.82;99564.90;1650638;86;21119;-71
2021/06/24 07:37:59;;;;;;;34.73;6.35;;;;;;;30.00;47.10;99560.75;1658357;85;21160;-72
2021/06/24 07:40:25;;;;;;;40.05;7.45;;;;;;;29.95;47.58;99565.52;1636589;86;20880;-73
2021/06/24 07:42:52;;;;;;;37.20;6.30;;;;;;;29.86;48.39;99564.12;1643105;86;21153;-71
2021/06/24 07:45:18;;;;;;;31.68;6.45;;;;;;;29.75;48.61;99565.65;1641625;86;21027;-72
2021/06/24 07:47:45;;;;;;;33.80;6.42;;;;;;;29.61;47.48;99569.65;1642842;86;21037;-71
2021/06/24 07:50:12;;;;;;;29.63;6.40;;;;;;;29.46;48.25;99564.98;1638063;86;21165;-72
2021/06/24 07:52:39;;;;;;;35.83;5.70;;;;;;;29.43;48.80;99565.11;1652571;86;23004;-73
2021/06/24 07:55:07;;;;;;;29.30;6.83;;;;;;;29.57;49.38;99568.95;1629119;86;21075;-73
2021/06/24 07:57:34;;;;;;;35.00;6.53;;;;;;;29.75;48.50;99567.06;1638519;85;21574;-72
2021/06/24 08:00:00;;;;;;;33.78;6.55;;;;;;;29.85;48.23;99571.02;1644583;84;21039;-70
2021/06/24 08:02:26;;;;;;;30.82;5.83;;;;;;;29.89;47.93;99570.92;1658981;84;21121;-69
2021/06/24 08:04:53;;;;;;;41.18;7.20;;;;;;;29.90;48.86;99571.89;1664018;84;20954;-68
2021/06/24 08:07:19;;;;;;;40.73;6.75;;;;;;;29.88;49.08;99567.92;1622063;84;21021;-70
2021/06/24 08:09:46;;;;;;;35.40;6.10;;;;;;;29.84;48.98;99568.63;1674440;84;21006;-69
2021/06/24 08:12:13;;;;;;;30.05;6.45;;;;;;;29.81;49.73;99565.28;1645484;84;21058;-71
2021/06/24 08:14:39;;;;;;;41.28;6.72;;;;;;;29.80;49.66;99569.35;1661187;84;21126;-70
2021/06/24 08:17:08;;;;;;;40.95;7.53;;;;;;;29.78;50.02;99564.14;1659436;85;21158;-70
2021/06/24 08:19:34;;;;;;;30.77;7.33;;;;;;;29.79;51.17;99559.27;1650949;85;21105;-69
2021/06/24 08:22:03;;;;;;;36.98;8.10;;;;;;;29.81;51.03;99559.63;1654023;86;21012;-69
2021/06/24 08:24:30;;;;;;;39.95;7.92;;;;;;;29.77;50.86;99558.30;1663434;85;21080;-70
2021/06/24 08:26:56;;;;;;;36.83;7.58;;;;;;;29.78;50.90;99554.86;1640367;85;21170;-69
2021/06/24 08:29:23;;;;;;;44.73;8.05;;;;;;;29.80;50.94;99551.75;1636703;86;21535;-69
2021/06/24 08:31:50;;;;;;;28.55;7.33;;;;;;;29.87;51.14;99555.80;1653027;86;21535;-73
2021/06/24 08:34:17;;;;;;;54.33;8.58;;;;;;;29.98;51.61;99552.67;1648073;86;21204;-69
2021/06/24 08:36:44;;;;;;;37.67;6.80;;;;;;;30.07;51.21;99555.66;1631396;86;21472;-73
2021/06/24 08:39:10;;;;;;;34.38;7.55;;;;;;;30.23;52.62;99551.34;1616815;87;21134;-74
2021/06/24 08:41:37;;;;;;;39.70;7.22;;;;;;;30.39;51.97;99551.09;1598524;88;21021;-75
2021/06/24 08:44:07;;;;;;;38.73;6.67;;;;;;;30.51;52.22;99553.16;1606912;88;20979;-74
2021/06/24 08:46:34;;;;;;;30.80;7.50;;;;;;;30.64;52.02;99546.88;1682333;84;20933;-76
2021/06/24 08:49:02;;;;;;;36.98;8.50;;;;;;;30.84;52.32;99546.05;1675254;84;21029;-75
2021/06/24 08:51:28;;;;;;;43.63;8.48;;;;;;;31.04;53.37;99550.69;1677123;84;21159;-75
2021/06/24 08:53:55;;;;;;;48.30;8.68;;;;;;;31.28;51.87;99544.81;1666418;84;21013;-75
2021/06/24 08:56:22;;;;;;;34.35;7.67;;;;;;;31.47;50.77;99533.82;1674114;84;21088;-75
2021/06/24 08:58:52;;;;;;;40.00;7.33;;;;;;;31.63;52.43;99530.66;1669019;84;21539;-70
2021/06/24 09:01:17;;;;;;;34.55;8.73;;;;;;;31.78;50.58;99521.80;1666392;84;20920;-72
2021/06/24 09:03:46;;;;;;;35.70;7.37;;;;;;;31.96;50.33;99523.98;1655979;84;21247;-70
2021/06/24 09:06:13;;;;;;;33.33;7.55;;;;;;;32.13;50.25;99518.27;1663557;84;20933;-70
2021/06/24 09:08:52;;;;;;;42.13;10.00;;;;;;;32.44;50.27;99520.52;1665779;84;21007;-69
2021/06/24 09:11:24;;;;;;;41.10;7.47;;;;;;;33.00;49.58;99524.38;1668624;84;20990;-71
2021/06/24 09:14:12;;;;;;;54.08;9.10;;;;;;;33.59;47.94;99518.02;1667335;84;21588;-71
2021/06/24 09:16:41;;;;;;;38.08;7.95;;;;;;;34.06;45.56;99519.77;1649056;84;21141;-70
2021/06/24 09:19:23;;;;;;;38.38;7.95;;;;;;;34.47;44.81;99514.62;1674547;84;21504;-70
2021/06/24 09:22:04;;;;;;;29.57;6.53;;;;;;;34.70;43.93;99512.44;1652767;84;21734;-70
2021/06/24 09:24:37;;;;;;;47.50;6.53;;;;;;;34.93;40.99;99518.71;1673839;84;21081;-69
2021/06/24 09:27:19;;;;;;;23.77;4.90;;;;;;;35.10;39.70;99518.46;1690736;83;21483;-71
2021/06/24 09:30:01;;;;;;;24.72;4.85;;;;;;;35.25;38.98;99525.63;1666190;84;21828;-72
2021/06/24 09:32:35;;;;;;;20.57;4.92;;;;;;;35.48;37.14;99527.73;1665045;84;20898;-72
2021/06/24 09:35:04;;;;;;;26.10;5.05;;;;;;;35.54;38.00;99529.27;1660248;85;21042;-71
2021/06/24 09:38:10;;;;;;;21.37;4.62;;;;;;;35.58;37.49;99527.02;1673680;84;21070;-68
2021/06/24 09:40:49;;;;;;;19.07;4.47;;;;;;;35.74;37.22;99526.58;1665507;84;20973;-70
2021/06/24 09:43:26;;;;;;;24.60;5.30;;;;;;;35.84;36.56;99526.65;1660578;84;21143;-69
2021/06/24 09:46:12;;;;;;;19.85;4.10;;;;;;;35.83;35.79;99533.64;1665341;84;20995;-72
2021/06/24 09:48:46;;;;;;;22.70;4.22;;;;;;;35.84;36.65;99536.65;1652012;85;21034;-73
2021/06/24 09:51:20;;;;;;;23.85;5.25;;;;;;;35.97;37.04;99532.88;1652162;85;20975;-70
2021/06/24 09:54:04;;;;;;;20.37;4.78;;;;;;;36.16;36.44;99532.06;1677521;84;21001;-70
2021/06/24 09:56:35;;;;;;;26.05;5.25;;;;;;;36.23;36.08;99533.75;1673993;84;21183;-81
2021/06/24 09:59:04;;;;;;;37.50;6.33;;;;;;;36.25;36.15;99528.33;1649244;84;21065;-77
2021/06/24 10:01:38;;;;;;;33.98;5.40;;;;;;;36.41;34.88;99527.84;1645353;84;21036;-79
2021/06/24 10:04:19;;;;;;;28.57;5.50;;;;;;;36.60;36.13;99527.77;1666550;84;21031;-73
2021/06/24 10:06:47;;;;;;;32.83;5.95;;;;;;;36.78;34.55;99526.01;1648631;84;20996;-67
2021/06/24 10:09:14;;;;;;;22.05;5.08;;;;;;;36.86;35.77;99525.75;1691321;84;21149;-69
2021/06/24 10:11:41;;;;;;;29.80;5.33;;;;;;;36.93;34.36;99522.47;1682019;84;21029;-68
2021/06/24 10:14:10;;;;;;;24.47;4.70;;;;;;;36.97;34.10;99523.05;1648262;85;21557;-69
2021/06/24 10:16:38;;;;;;;19.67;5.40;;;;;;;36.98;34.45;99519.67;1634177;85;20997;-74
2021/06/24 10:19:06;;;;;;;21.73;4.67;;;;;;;37.03;34.39;99513.88;1659922;85;21023;-72
2021/06/24 10:21:35;;;;;;;16.77;4.28;;;;;;;37.08;35.24;99514.61;1651366;85;21167;-73
2021/06/24 10:24:08;;;;;;;13.08;4.72;;;;;;;37.23;33.24;99509.65;1644607;85;21154;-71
2021/06/24 10:26:44;;;;;;;23.67;4.75;;;;;;;37.39;33.17;99506.87;1568017;89;21023;-70
2021/06/24 10:29:20;;;;;;;27.48;5.08;;;;;;;37.44;33.68;99507.58;1645668;85;21026;-71
2021/06/24 10:39:35;;;;;;;23.27;4.67;;;;;;;36.79;35.15;99493.27;1777621;79;26295;-65
2021/06/24 10:42:09;;;;;;;24.63;5.58;;;;;;;36.81;34.69;99491.48;1708629;81;21014;-74
2021/06/24 10:44:51;;;;;;;25.20;4.85;;;;;;;36.87;35.22;99492.99;1742692;80;21130;-66
2021/06/24 10:47:37;;;;;;;20.20;4.65;;;;;;;36.90;34.14;99503.45;1725399;81;20908;-68
2021/06/24 10:50:32;;;;;;;20.25;5.30;;;;;;;36.83;32.06;99499.56;1744379;81;20986;-66
2021/06/24 10:53:11;;;;;;;17.75;4.50;;;;;;;36.70;34.11;99499.86;1745157;81;20946;-69
2021/06/24 10:55:40;;;;;;;31.55;5.20;;;;;;;36.82;33.22;99500.84;1743803;81;20974;-67
2021/06/24 10:58:27;;;;;;;19.60;4.92;;;;;;;36.89;34.32;99503.30;1755395;80;21818;-66
2021/06/24 11:00:55;;;;;;;26.30;5.12;;;;;;;37.05;34.90;99507.02;1718717;81;20991;-66
2021/06/24 11:03:32;;;;;;;20.97;4.55;;;;;;;37.24;32.66;99496.91;1739571;80;20923;-71
2021/06/24 11:06:15;;;;;;;19.37;5.20;;;;;;;37.34;34.78;99498.34;1740248;81;21508;-68
2021/06/24 11:08:44;;;;;;;18.02;4.50;;;;;;;37.47;33.39;99497.20;1722070;81;21387;-67
2021/06/24 11:11:15;;;;;;;25.15;5.22;;;;;;;37.56;32.62;99494.16;1738882;81;21128;-66
2021/06/24 11:13:49;;;;;;;15.40;4.95;;;;;;;37.61;32.36;99496.30;1739727;81;21024;-65
2021/06/24 11:16:27;;;;;;;25.68;5.22;;;;;;;37.61;32.23;99493.44;1738197;81;20985;-65
2021/06/24 11:19:14;;;;;;;21.70;4.58;;;;;;;37.61;32.62;99494.88;1744870;80;21003;-67
2021/06/24 11:21:47;;;;;;;28.50;5.70;;;;;;;37.66;31.90;99487.78;1742557;81;21112;-67
2021/06/24 11:24:17;;;;;;;16.25;4.17;;;;;;;37.60;32.87;99481.84;1743112;81;21120;-72
2021/06/24 11:26:47;;;;;;;16.35;4.08;;;;;;;37.53;33.19;99482.31;1745042;81;20942;-68
2021/06/24 11:29:29;;;;;;;24.00;4.45;;;;;;;37.46;31.95;99474.16;1737320;81;20954;-70
2021/06/24 11:32:07;;;;;;;13.08;3.65;;;;;;;37.38;33.47;99481.60;1738395;81;20994;-70
2021/06/24 11:34:51;;;;;;;11.75;4.30;;;;;;;37.29;31.66;99474.73;1736627;81;20943;-71
2021/06/24 11:37:32;;;;;;;15.15;4.20;;;;;;;37.27;33.09;99480.17;1740208;81;21135;-75
2021/06/24 11:40:05;;;;;;;22.42;5.37;;;;;;;37.29;33.54;99471.87;1731540;82;20933;-68